Time;durP1;ratioP1;P1;durP2;ratioP2;P2;SDS_P1;SDS_P2;PMS_P1;PMS_P2;Temp;Humidity;BMP_temperature;BMP_pressure;BME280_temperature;BME280_humidity;BME280_pressure;Samples;Min_cycle;Max_cycle;Signal;HPM_P1;HPM_P2
2024/04/09 00:00:41;;;;;;;26.60;11.10;;;;;;;14.74;60.84;98274.33;435015;1264;106869;-41
2024/04/09 00:11:20;;;;;;;14.30;9.70;;;;;;;14.86;61.22;98269.05;435268;1255;100584;-40
2024/04/09 00:31:36;;;;;;;18.80;11.40;;;;;;;14.49;61.21;98257.08;435211;1257;107032;-40
2024/04/09 00:41:43;;;;;;;14.80;10.60;;;;;;;14.24;61.66;98254.25;435146;1256;100572;-41
2024/04/09 00:51:53;;;;;;;17.30;9.70;;;;;;;14.15;61.94;98245.87;435026;1256;109425;-40
2024/04/09 01:02:00;;;;;;;15.60;10.30;;;;;;;14.12;61.98;98246.23;435114;1254;99343;-40
2024/04/09 01:12:03;;;;;;;18.80;10.90;;;;;;;13.96;62.32;98239.43;435872;1256;112423;-41
2024/04/09 01:22:11;;;;;;;17.40;10.80;;;;;;;13.75;62.62;98240.05;434456;1255;107696;-41
2024/04/09 01:42:24;;;;;;;18.00;10.50;;;;;;;13.53;63.22;98240.10;434453;1254;109001;-40
2024/04/09 01:52:31;;;;;;;15.30;9.40;;;;;;;13.45;63.34;98241.54;434330;1253;100585;-41
2024/04/09 02:02:40;;;;;;;15.50;10.30;;;;;;;13.60;63.61;98237.15;434334;1253;113383;-41
2024/04/09 02:12:45;;;;;;;;;;;;;;;13.58;63.52;98233.48;434540;1257;108671;-41
2024/04/09 02:22:52;;;;;;;19.60;10.50;;;;;;;13.34;63.83;98232.98;434506;1254;100584;-41
2024/04/09 02:32:59;;;;;;;13.60;9.90;;;;;;;13.22;63.84;98229.50;434283;1258;107486;-40
2024/04/09 02:43:05;;;;;;;18.70;11.00;;;;;;;12.96;64.24;98228.24;434356;1254;100571;-41
2024/04/09 02:53:12;;;;;;;14.00;9.90;;;;;;;12.97;64.39;98235.14;434170;1253;114502;-41
2024/04/09 03:03:19;;;;;;;17.40;9.80;;;;;;;12.91;64.58;98227.67;434194;1254;107393;-41
2024/04/09 03:13:27;;;;;;;18.00;10.30;;;;;;;12.85;64.95;98231.62;434389;1254;100638;-40
2024/04/09 03:23:47;;;;;;;17.00;10.10;;;;;;;12.80;65.30;98229.67;434294;1254;107742;-42
2024/04/09 03:33:54;;;;;;;16.30;8.80;;;;;;;12.77;65.47;98233.52;434239;1257;100594;-40
2024/04/09 03:54:09;;;;;;;14.00;9.30;;;;;;;12.74;65.65;98235.45;434254;1254;107755;-41
2024/04/09 04:04:17;;;;;;;18.90;9.20;;;;;;;12.69;66.07;98234.23;434196;1257;99386;-41
2024/04/09 04:14:24;;;;;;;15.70;8.70;;;;;;;12.69;66.21;98222.83;434386;1253;108553;-41
2024/04/09 04:24:31;;;;;;;15.90;7.30;;;;;;;12.77;66.23;98213.52;434367;1254;99513;-39
2024/04/09 04:34:37;;;;;;;19.20;7.50;;;;;;;13.01;66.15;98208.64;434305;1258;112624;-40
2024/04/09 04:54:51;;;;;;;14.10;7.90;;;;;;;13.45;66.16;98218.85;434564;1253;99385;-41
2024/04/09 05:04:57;;;;;;;17.00;7.50;;;;;;;13.80;65.86;98222.58;434463;1253;109560;-40
2024/04/09 05:25:10;;;;;;;13.10;7.40;;;;;;;15.55;65.01;98206.55;434318;1257;113198;-40
2024/04/09 05:35:18;;;;;;;13.20;8.10;;;;;;;16.68;63.94;98206.33;434315;1259;108190;-40
2024/04/09 05:45:25;;;;;;;22.00;7.60;;;;;;;17.75;62.58;98201.61;434003;1253;710637;-41
2024/04/09 05:55:32;;;;;;;19.90;7.40;;;;;;;18.53;60.79;98206.91;434287;1257;107585;-41
2024/04/09 06:05:38;;;;;;;17.20;6.40;;;;;;;18.99;58.48;98196.55;434272;1252;99856;-41
2024/04/09 06:15:46;;;;;;;11.00;6.20;;;;;;;19.71;57.42;98190.89;434371;1253;113411;-42
2024/04/09 06:25:53;;;;;;;14.60;6.30;;;;;;;20.60;55.83;98187.52;434330;1257;107483;-40
2024/04/09 06:36:00;;;;;;;20.90;6.90;;;;;;;21.27;53.89;98177.85;434268;1253;100598;-41
2024/04/09 06:46:22;;;;;;;15.90;5.60;;;;;;;21.89;51.96;98166.71;434366;1257;108633;-40
2024/04/09 06:56:29;;;;;;;9.10;3.40;;;;;;;22.45;50.64;98165.73;434385;1253;99726;-41
2024/04/09 07:06:35;;;;;;;12.60;2.80;;;;;;;23.03;48.13;98155.74;434478;1257;112521;-41
2024/04/09 07:16:43;;;;;;;9.40;2.50;;;;;;;23.50;46.07;98155.81;434210;1253;108395;-39
2024/04/09 07:36:54;;;;;;;12.60;2.00;;;;;;;23.79;43.11;98150.80;434492;1256;107617;-41
2024/04/09 07:47:03;;;;;;;5.70;1.70;;;;;;;23.54;41.31;98150.58;434552;1253;99417;-41
2024/04/09 08:07:16;;;;;;;6.20;2.10;;;;;;;24.24;39.82;98158.75;434451;1253;107675;-41
2024/04/09 08:27:32;;;;;;;3.80;1.50;;;;;;;24.90;38.64;98159.83;434281;1252;108569;-40
2024/04/09 08:37:41;;;;;;;4.60;1.70;;;;;;;25.01;37.29;98155.83;434502;1253;102834;-40
2024/04/09 08:47:51;;;;;;;7.60;2.00;;;;;;;25.28;36.79;98153.08;434295;1257;112575;-41
2024/04/09 08:57:58;;;;;;;4.80;1.80;;;;;;;25.63;36.30;98146.92;434498;1253;107173;-40
2024/04/09 09:08:06;;;;;;;4.40;1.30;;;;;;;25.97;35.57;98143.55;434399;1257;100603;-40
2024/04/09 09:18:22;;;;;;;8.10;2.30;;;;;;;26.12;35.17;98149.41;434465;1252;108377;-39
2024/04/09 09:28:29;;;;;;;6.30;2.40;;;;;;;26.22;34.78;98145.91;434567;1257;100600;-40
2024/04/09 09:38:49;;;;;;;99.90;7.90;;;;;;;26.12;34.12;98133.46;434529;1258;113540;-39
2024/04/09 09:48:56;;;;;;;9.30;2.90;;;;;;;26.49;34.81;98125.62;434433;1253;108809;-43
2024/04/09 09:59:04;;;;;;;8.20;2.40;;;;;;;26.67;33.61;98111.13;434573;1253;99299;-39
2024/04/09 10:09:11;;;;;;;7.90;3.10;;;;;;;26.86;33.40;98110.94;434583;1253;108243;-39
2024/04/09 10:19:17;;;;;;;7.80;2.70;;;;;;;27.05;33.43;98093.80;434501;1253;100577;-40
2024/04/09 10:39:32;;;;;;;3.90;1.40;;;;;;;27.49;31.41;98078.10;434726;1257;108391;-39
2024/04/09 10:59:46;;;;;;;33.50;2.90;;;;;;;27.26;29.83;98060.36;434714;1253;109379;-40
2024/04/09 11:09:53;;;;;;;4.40;1.80;;;;;;;27.38;29.35;98050.08;434574;1258;99411;-39
2024/04/09 11:30:22;;;;;;;6.90;1.90;;;;;;;27.70;29.66;98021.00;434736;1253;106791;-40
2024/04/09 11:40:31;;;;;;;5.10;1.90;;;;;;;27.95;30.04;98013.73;434796;1258;100604;-40
2024/04/09 11:50:38;;;;;;;4.00;1.90;;;;;;;27.99;29.42;98003.02;434640;1253;107122;-40
2024/04/09 12:00:44;;;;;;;6.70;1.70;;;;;;;27.92;29.28;97999.94;434707;1253;100699;-39
2024/04/09 12:10:52;;;;;;;8.10;1.70;;;;;;;27.91;28.10;97987.26;434646;1258;113521;-40
2024/04/09 12:20:59;;;;;;;9.60;2.50;;;;;;;27.89;28.40;97971.14;434833;1253;107773;-41
2024/04/09 12:31:05;;;;;;;7.30;2.00;;;;;;;27.78;28.61;97959.63;434790;1253;100600;-40
2024/04/09 12:41:12;;;;;;;7.50;1.90;;;;;;;27.69;27.64;97945.86;434898;1253;107836;-41
2024/04/09 12:51:20;;;;;;;7.10;2.00;;;;;;;27.72;27.67;97940.96;434839;1253;99860;-41
2024/04/09 13:01:28;;;;;;;9.40;2.20;;;;;;;27.78;27.31;97929.81;434712;1258;111785;-41
2024/04/09 13:11:35;;;;;;;21.40;3.10;;;;;;;27.70;27.58;97920.44;435032;1253;108370;-39
2024/04/09 13:21:42;;;;;;;10.00;2.30;;;;;;;27.77;28.77;97910.86;434801;1252;99386;-41
2024/04/09 13:31:49;;;;;;;9.80;2.40;;;;;;;27.63;28.38;97910.11;434692;1253;107572;-39
2024/04/09 13:41:56;;;;;;;12.40;2.20;;;;;;;27.66;28.60;97907.32;434833;1253;100596;-40
2024/04/09 13:52:17;;;;;;;10.00;2.30;;;;;;;27.63;28.68;97906.61;434711;1258;113378;-40
2024/04/09 14:12:31;;;;;;;9.70;2.40;;;;;;;27.14;28.49;97903.60;434563;1253;100677;-40
2024/04/09 14:22:39;;;;;;;5.40;2.30;;;;;;;26.99;28.68;97903.52;434728;1258;106948;-39
2024/04/09 14:32:46;;;;;;;19.20;2.80;;;;;;;27.05;28.97;97902.34;434784;1253;99579;-41
2024/04/09 14:42:53;;;;;;;6.20;2.00;;;;;;;27.10;28.79;97898.95;434590;1253;112201;-40
2024/04/09 14:53:04;;;;;;;10.70;2.30;;;;;;;26.98;29.12;97900.64;434685;1259;108548;-41
2024/04/09 15:03:11;;;;;;;27.10;3.60;;;;;;;26.84;29.01;97906.05;434909;1258;99332;-40
2024/04/09 15:13:18;;;;;;;10.30;2.50;;;;;;;26.69;29.11;97907.15;434708;1253;109507;-42
2024/04/09 15:23:23;;;;;;;;;;;;;;;26.60;29.47;97903.63;434524;1254;100662;-39
2024/04/09 15:53:41;;;;;;;10.60;2.50;;;;;;;26.36;30.44;97923.05;434610;1258;100743;-39
2024/04/09 16:03:47;;;;;;;8.00;2.00;;;;;;;26.07;30.78;97921.13;434611;1257;107291;-40
2024/04/09 16:13:55;;;;;;;86.60;7.50;;;;;;;25.82;31.55;97925.30;434803;1253;100584;-40
2024/04/09 16:24:01;;;;;;;40.30;5.70;;;;;;;25.63;32.04;97926.55;434782;1259;113091;-40
2024/04/09 16:44:12;;;;;;;8.20;3.20;;;;;;;24.88;33.24;97933.68;434632;1257;100685;-41
2024/04/09 16:54:19;;;;;;;16.40;3.80;;;;;;;24.36;33.91;97928.12;434636;1253;108544;-40
2024/04/09 17:14:33;;;;;;;15.00;5.70;;;;;;;23.26;35.68;97941.29;434636;1257;113795;-41
2024/04/09 17:24:40;;;;;;;23.60;5.80;;;;;;;22.67;36.96;97948.64;434451;1258;108057;-41
2024/04/09 17:34:47;;;;;;;75.60;11.20;;;;;;;22.04;38.19;97962.46;434563;1258;99712;-41
2024/04/09 17:44:53;;;;;;;32.70;11.80;;;;;;;21.53;38.96;97984.03;434098;1266;507546;-40
2024/04/09 17:55:00;;;;;;;23.00;10.50;;;;;;;21.41;38.93;98003.55;434471;1258;99708;-41
2024/04/09 18:05:06;;;;;;;21.20;8.20;;;;;;;21.32;38.85;98014.10;434600;1257;113415;-40
2024/04/09 18:15:13;;;;;;;11.20;5.60;;;;;;;21.27;39.02;98027.98;434481;1254;107249;-40
2024/04/09 18:25:20;;;;;;;14.40;4.80;;;;;;;21.23;39.20;98040.15;434660;1254;100889;-41
2024/04/09 18:45:47;;;;;;;72.90;9.20;;;;;;;20.93;39.68;98064.71;434526;1253;100601;-41
2024/04/09 18:55:53;;;;;;;6.70;4.00;;;;;;;20.73;39.99;98075.28;434442;1266;113360;-40
2024/04/09 19:06:00;;;;;;;15.40;4.90;;;;;;;20.55;40.42;98080.63;434303;1266;108741;-40
2024/04/09 19:16:05;;;;;;;12.00;5.30;;;;;;;20.42;40.91;98086.39;434540;1254;100639;-40
2024/04/09 19:26:12;;;;;;;9.90;3.30;;;;;;;20.14;41.46;98090.64;434499;1257;108771;-40
2024/04/09 19:36:19;;;;;;;6.60;3.40;;;;;;;19.83;42.16;98099.30;434403;1257;100587;-39
2024/04/09 19:46:26;;;;;;;10.20;3.80;;;;;;;19.57;42.78;98103.55;434297;1266;113628;-40
2024/04/09 19:56:32;;;;;;;23.80;3.70;;;;;;;19.41;43.47;98114.50;434460;1266;108114;-40
2024/04/09 20:06:38;;;;;;;14.40;4.00;;;;;;;19.27;44.19;98124.38;434387;1266;100561;-39
2024/04/09 20:16:45;;;;;;;10.80;4.40;;;;;;;19.07;44.64;98133.69;434383;1256;108160;-37
2024/04/09 20:26:52;;;;;;;10.10;4.00;;;;;;;18.87;45.28;98140.60;434409;1258;99372;-40
2024/04/09 20:36:59;;;;;;;8.20;3.60;;;;;;;18.61;45.99;98140.60;434382;1266;113365;-40
2024/04/09 20:47:05;;;;;;;10.90;4.40;;;;;;;18.39;46.73;98144.48;434251;1266;108856;-40
2024/04/09 20:57:11;;;;;;;10.20;4.40;;;;;;;18.29;47.46;98139.71;434427;1256;100641;-41
2024/04/09 21:07:18;;;;;;;6.80;3.40;;;;;;;18.31;47.86;98147.02;434322;1266;107864;-40
2024/04/09 21:17:25;;;;;;;9.00;4.50;;;;;;;18.32;48.45;98148.07;434427;1253;100578;-40
2024/04/09 21:27:32;;;;;;;11.40;4.60;;;;;;;18.27;48.97;98157.05;434388;1266;113605;-39
2024/04/09 21:37:41;;;;;;;8.60;4.30;;;;;;;18.22;49.61;98161.50;434337;1258;107839;-41
2024/04/09 21:47:46;;;;;;;10.00;4.00;;;;;;;18.11;50.04;98168.73;434640;1253;100577;-40
2024/04/09 21:57:53;;;;;;;12.10;4.50;;;;;;;18.02;50.70;98175.23;434347;1257;109218;-38
2024/04/09 22:08:00;;;;;;;10.60;4.30;;;;;;;17.97;51.18;98177.00;434337;1255;99796;-41
2024/04/09 22:18:05;;;;;;;8.40;4.20;;;;;;;17.89;51.70;98185.17;434275;1257;113281;-41
2024/04/09 22:28:12;;;;;;;7.70;4.30;;;;;;;17.77;52.27;98188.88;434325;1258;107443;-39
2024/04/09 22:38:20;;;;;;;15.40;3.80;;;;;;;17.67;52.85;98199.20;434473;1253;99734;-45
2024/04/09 22:48:33;;;;;;;10.70;4.30;;;;;;;17.50;53.01;98206.05;434297;1257;107550;-41
2024/04/09 22:58:42;;;;;;;11.40;4.50;;;;;;;17.34;53.75;98214.36;434009;1257;99670;-42
2024/04/09 23:08:50;;;;;;;12.60;5.00;;;;;;;17.30;54.46;98218.73;433958;1261;112400;-39
2024/04/09 23:18:57;;;;;;;21.90;5.70;;;;;;;17.27;54.84;98228.48;434069;1269;107083;-39
2024/04/09 23:29:03;;;;;;;17.80;5.00;;;;;;;17.23;55.46;98238.24;434167;1260;100591;-39
2024/04/09 23:39:10;;;;;;;20.80;6.80;;;;;;;17.13;55.84;98249.30;434023;1254;107475;-41
2024/04/09 23:49:17;;;;;;;20.20;6.10;;;;;;;16.96;56.04;98271.77;434089;1254;99367;-39
